Bezig met laden...

Meteo / TAF / Notam

België
  • EBAW - ANTWERPEN / DEURNE
    EBAW 010750Z 34012KT 310V010 6000 -SHRA FEW009 BKN013 08/07 Q1016 TEMPO 34015G25KT
    TAF EBAW 010505Z 0106/0115 35012KT 9999 BKN020 PROB40 TEMPO 0106/0110 34015G25KT 4000 SHRA SHGS SCT008 BKN012CB
  • EBBE - BEAUVECHAIN
    EBBE 010755Z 33011KT 5000 RA SCT006 BKN008 BKN010 07/07 Q1015 YLO GRN TEMPO YLO
    TAF EBBE 010541Z 0107/0116 32010G20KT 9999 SCT013 BKN018 TEMPO 0107/0116 34015G25KT 7000 -SHRA BKN010TCU OVC014 TEMPO 0107/0112 SCT006 BKN010 OVC012
  • EBBL - KLEINE-BROGEL
    EBBL 010755Z 30003KT 1000 DZ SCT004 BKN013 07/07 Q1013 AMB YLO TEMPO GRN
    TAF AMD EBBL 010557Z 0107/0116 31008KT 9999 BKN017 TEMPO 0107/0116 36010G20KT 5000 -SHRA-RA SCT008 BKN015TCU PROB40 TEMPO 0107/0114 01015G25KT 4000 SHRA SCT007 SCT012TCU PROB30 TEMPO 0107/0112 36015G32KT 3500 SHRA SCT006 BKN010TCU BECMG 0108/0110 35015G25
  • EBBR - BRUSSELS / BRUSSELS-NATIONAL
    EBBR 010750Z 33012KT 9999 SCT008 BKN012 08/06 Q1015 NOSIG
    TAF EBBR 010501Z 0106/0212 34012KT 9999 BKN020 PROB40 TEMPO 0106/0110 34015G25KT 4000 SHRA SHGS SCT006 BKN010CB BECMG 0118/0120 SCT008 BKN012 BECMG 0200/0202 04006KT 3000 BR BKN006 PROB40 TEMPO 0203/0210 1500 BR BKN004
  • EBCI - CHARLEROI / BRUSSELS SOUTH
    EBCI 010750Z 31009KT 270V350 3000 -SHRA FEW003 SCT004TCU OVC005 06/05 Q1015 TEMPO 3000 SHRA
    TAF EBCI 010501Z 0106/0212 28010KT 9999 BKN020 PROB40 TEMPO 0106/0112 34015G25KT 4000 SHRA SHGS SCT004 BKN009CB BECMG 0106/0108 34013KT BECMG 0118/0120 4000 BR BKN006 BECMG 0122/0124 04006KT PROB40 TEMPO 0202/0210 1200 BCFG BR BKN002
  • EBCV - CHIÈVRES
    EBCV 010755Z AUTO 33014KT //// OVC009/// 07/06 Q1017 GRN
    TAF EBCV 010541Z 0107/0116 31008KT 9000 BKN025 TEMPO 0107/0113 7000 -RA BKN013 OVC030 TEMPO 0113/0116 36012G22KT 5000 -SHRA SCT020 PROB30 TEMPO 0113/0116 36015G25KT 3500 SHRAGS BKN017TCU BY EBWM
  • EBDT - DIEST / SCHAFFEN
    EBDT 010755Z AUTO 33014KT 3500 RA FEW005/// SCT007/// BKN010/// 08/07 Q1014 YLO
    TAF EBDT 301541Z 3019/0107 21008KT 4000 BR SCT005 BKN008 TEMPO 3019/3023 1800 -RADZ -DZ BR BKN005 OVC007 TEMPO 3019/3023 1200 DZ RADZ BKN003 OVC005 BECMG 3023/0102 30009KT 4500 BR FEW006 SCT012 BKN035 TEMPO 0101/0107 2200 SHRA SCT010 BKN012
  • EBFN - KOKSIJDE
    EBFN 010755Z 36020G30KT 9999 SCT025 BKN045 09/05 Q1019 BLU BLU TEMPO WHT
    TAF EBFN 010541Z 0107/0116 35025G35KT 9999 FEW020 SCT030 PROB30 TEMPO 0107/0109 35025G35KT 4000 SHRA SCT010 BKN012TCU PROB30 TEMPO 0111/0114 6000 -SHRA SCT020 BKN025 BECMG 0113/0115 010020G030KT
  • EBFS - FLORENNES
    EBFS 010755Z 29007KT 2500 -RA SCT003 BKN005 BKN010 05/05 Q1015 YLO YLO
    TAF AMD EBFS 010615Z 0107/0116 34010G20KT 9999 -SHRA -RA SCT005 BKN010TCU BKN015 TEMPO 0110/0113 35015G27KT 3000 SHRA RA SCT002 BKN008TCU BKN008 BECMG 0113/0115 34010G20KT 9999 SCT010 BKN015 TEMPO0113/0116 34010G25KT 6000 BKN010TCU BKN015
  • EBLB - ELSENBORN
    EBLB 010811Z AUTO 28004KT 2500 BR OVC002/// 02/02 Q1013 AMB
  • EBLG - LIÈGE / LIÈGE
    EBLG 010750Z 27005KT 3300 -SHRA SCT003 BKN005 BKN010TCU 05/05 Q1014 RESHRA BECMG 8000 NSW
    TAF EBLG 010501Z 0106/0212 28010KT 9999 BKN015 PROB40 TEMPO 0106/0115 34015G25KT 4000 SHRA SHGS SCT004 BKN009CB BECMG 0108/0110 34013KT BECMG 0116/0118 4000 BR -DZ BKN006 BECMG 0121/0123 04005KT PROB40 TEMPO 0201/0210 1200 BCFG BR BKN002
  • EBOS - OOSTENDE-BRUGGE / OOSTENDE
    EBOS 010750Z 35020KT 9999 FEW020 SCT048 09/03 Q1019 TEMPO 35020G32KT
    TAF EBOS 010501Z 0106/0212 35022KT 9999 BKN020 TEMPO 0119/0124 4000 SHRA RA BKN014 BECMG 0120/0122 02012KT BECMG 0204/0206 08005KT BECMG 0206/0208 4500 BR BKN010
Nederland
  • EHAK - A12-CPP HELIPAD OIL 2011
    EHAK 010755Z AUTO 36037KT 340V050 9999 SCT021/// BKN025/// OVC029/// 09/04 Q1018
  • EHAM - AMSTERDAM AIRPORT SCHIPHOL
    EHAM 010755Z 35015KT 310V020 9999 -SHRA FEW016CB BKN028 09/06 Q1015 BECMG NSW
    TAF EHAM 010512Z 0106/0212 34015G25KT 9999 SCT018 BKN030 TEMPO 0106/0110 35022G35KT 6000 SHRA SCT018CB BKN030 BECMG 0114/0116 36008KT BECMG 0122/0201 04005KT 4500 BR SCT005 BKN008 PROB30 0200/0212 2000 -DZ SCT002 BKN003
  • EHBK - MAASTRICHT AACHEN AIRPORT
    EHBK 010755Z AUTO 24005KT 210V280 2300 DZ BKN001 OVC002 06/06 Q1013 TEMPO 3000 BKN002
    TAF COR EHBK 010740Z 0107/0212 25005KT 4000 BR BKN004 TEMPO 0107/0111 2000 BKN002 TEMPO 0109/0115 RA SHRA BR BKN006 SCT015CB BECMG 0111/0113 33012KT BKN018 BECMG 0118/0121 03008KT 2000 BR BKN004 PROB40 0119/0212 0800 -DZ FG BKN001
  • EHDL - DEELEN AIR BASE
    EHDL 010755Z AUTO 34010KT 310V030 6000 BR SCT006 BKN007 BKN008 FEW015CB 08/08 Q1013 REDZ YLO
  • EHDV - D15-FA-1 SEA
    EHDV 010755Z AUTO 36038KT //// // FEW021/// SCT024/// BKN034/// 09/05 Q1019 RE//
  • EHEH - EINDHOVEN AIRPORT
    EHEH 010755Z AUTO 34011KT 280V020 2400 R03/2400D +DZ SCT004 BKN005 OVC007 08/08 Q1013 RERA REDZ YLO
    TAF EHEH 010544Z 0106/0212 25006KT 4500 -RA SCT012 BKN028 PROB40 TEMPO 0106/0111 33012G24KT 2500 RA SHRA SCT005 FEW010CB BKN014 BECMG 0110/0112 36012KT 9999 SCT018 SCT035 BECMG 0117/0119 03006KT 3000 -DZRA SCT005 BKN010 PROB30 TEMPO 0119/0212 1500 DZ SCT0
  • EHFD - F-3 PLATFORM
    EHFD 010755Z AUTO /////KT 9999 // FEW017/// SCT023/// BKN031/// 10/05 Q1016 RE//
  • EHFS - VLISSINGEN
    EHFS 010755Z AUTO 35021G32KT 320V030 9999 -RA FEW021/// SCT027/// BKN031/// 09/05 Q1017
  • EHGG - GRONINGEN AIRPORT EELDE
    EHGG 010755Z AUTO 34011KT 300V010 7000 -SHRA SCT007 BKN008 BKN009 FEW015CB 09/08 Q1012 REDZ BECMG -R
    TAF EHGG 010522Z 0106/0212 34014KT 9999 BKN025 TEMPO 0106/0109 6000 SHRA RA BKN012 SCT015CB PROB30 0106/0107 4000 BR BKN005 BECMG 0116/0119 03010KT 4000 BR BKN008 BECMG 0119/0121 06007KT PROB40 0121/0212 2000 -DZ BR BKN002
  • EHGR - GILZE-RIJEN AIR BASE
    EHGR 010809Z AUTO 34013KT 270V030 9000 -RA FEW008 SCT010 FEW015CB BKN016 08/07 Q1015 GRN TEMPO 4500
    TAF EHGR 010536Z 0106/0118 33010G20KT 4500 -RA SCT010 BKN026 PROB40 TEMPO 0106/0108 35014G26KT 3000 RA SHRA SCT005 FEW012CB BKN018 BECMG 0109/0111 36012KT 9999 FEW018 SCT035
  • EHJA - J6-A SEA, NETHERLANDS
    EHJA 010755Z AUTO 36031KT //// // FEW017/// SCT021/// BKN027/// 10/04 Q1018 RE//
  • EHJR - K13-A PLATFORM
    EHJR 010755Z AUTO 00000KT //// // ///////// 10/04 Q1018 RE// W///H41
  • EHKD - DEN HELDER AIRPORT
    EHKD 010755Z AUTO 35017KT 310V040 9999 FEW028 SCT032 BKN036 09/05 Q1015 REDZ BLU NOSIG
    TAF EHKD 010506Z 0106/0118 35015G25KT 9999 FEW018 BKN035 PROB40 TEMPO 0106/0108 35018G32KT 4000 RA SHRA SCT012 FEW018CB BKN022 BECMG 0107/0109 36013KT
  • EHKV - K14-FA-1C PLATFORM
    EHKV 010755Z AUTO 36034KT 330V030 9999 FEW023 SCT028 BKN037 10/05 Q1017
  • EHLE - LELYSTAD AIRPORT
    EHLE 010755Z AUTO 35015KT 320V020 9999 -RA SCT030 BKN036 OVC041 08/07 Q1014 TEMPO 5000 SHRA SCT018CB
    TAF EHLE 010512Z 0106/0212 32010KT 9999 SCT017 BKN030 BECMG 0106/0109 35015G25KT PROB40 TEMPO 0106/0110 35022G35KT 6000 SHRA SCT018CB BKN030 BECMG 0115/0118 02010KT BECMG 0120/0123 06005KT 4500 BR SCT005 BKN008 PROB40 0122/0212 1400 -DZ SCT002 BKN003
  • EHLW - LEEUWARDEN AIR BASE
    EHLW 010755Z AUTO 36020KT 9999 FEW022 BKN028 OVC032 09/06 Q1014 BLU
    TAF EHLW 010522Z 0106/0118 34016KT 9999 FEW018 BKN035 PROB40 TEMPO 0106/0108 35018G30KT 4000 RA SHRA SCT012 FEW018CB BKN022 BECMG 0107/0109 36012KT
  • EHMA - AWG-1 PLATFORM
    EHMA 010755Z AUTO 36038KT 9999 SCT022 BKN027 BKN032 10/05 Q1012
  • EHMG - L9-FF-1 PLATFORM
    EHMG 010755Z AUTO 35035KT 9999 FEW016 BKN033 BKN039 10/04 Q1016
  • EHPG - P11-B SEA, NETHERLANDS
    EHPG 010755Z AUTO VRB23G36KT 9999 -RA FEW023 SCT029 BKN036 10/05 Q1017
  • EHQE - HOORN-A SEA, NETHERLANDS
    EHQE 010755Z AUTO 32036KT 9999 FEW025 BKN032 OVC037 10/05 Q1016
  • EHRD - ROTTERDAM THE HAGUE AIRPORT
    EHRD 010755Z AUTO 35014G24KT 320V030 9999 -RA FEW015CB SCT033 OVC043 08/06 Q1016 RERA REDZ TEMPO 600
    TAF COR EHRD 010517Z 0106/0212 35015G25KT 9999 SCT017 BKN030 TEMPO 0106/0110 35022G35KT 5000 SHRA SCT018CB BKN030 BECMG 0115/0118 04010KT BECMG 0122/0201 03005KT 4500 BR SCT005 BKN008 PROB40 0200/0212 2500 -DZ SCT002 BKN003
  • EHSA - EURO PLATFORM
    EHSA 010755Z AUTO 34034KT 9999 ///////// 10/05 Q1017 REDZ W10/H44
  • EHSC - LICHTEILAND GOEREE
    EHSC 010755Z AUTO 36035KT 9999 ///////// 10/05 Q1016 W11/H40
  • EHVK - VOLKEL AIR BASE
    EHVK 010809Z AUTO 34007KT 280V010 6000 -RA FEW003 SCT005 BKN007 08/08 Q1013 YLO
    TAF EHVK 010538Z 0106/0118 25004KT 8000 SCT012 BKN028 BECMG 0108/0110 32010G20KT 4500 -RA BKN010 PROB40 TEMPO 0108/0110 35012G24KT 3000 RA SHRA SCT005 FEW012CB BKN018 BECMG 0109/0111 36012KT 9999 SCT018 SCT035
  • EHVL - VLIELAND HELIPORT
    EHVL 010806Z AUTO 36025KT 8000 HZ SCT026 BKN031 BKN035 10/05 Q1015 BLU
  • EHWO - WOENSDRECHT AIR BASE
    EHWO 010810Z AUTO 35011KT 290V060 9999 FEW016 SCT020 BKN023 09/07 Q1016 WHT TEMPO 34014G24KT 3500 SC
    TAF EHWO 010526Z 0106/0118 34010G20KT 4500 -RA SCT010 BKN026 PROB40 TEMPO 0106/0108 35014G26KT 3000 RA SHRA SCT005 FEW012CB BKN018 BECMG 0109/0111 36012KT 9999 FEW018 SCT035
Luxemburg
  • ELLX - LUXEMBOURG FINDEL AIRPORT
    ELLX 010750Z 26008KT 5000 BR FEW003 BKN007 01/01 Q1014 NOSIG
    TAF ELLX 010500Z 0106/0212 24005KT 2000 BR BKN004 TEMPO 0106/0108 0500 FG -SN VV001 BECMG 0106/0108 32008KT 9999 BKN012 TEMPO 0107/0120 3000 RA OVC006 BECMG 0120/0122 0700 FG VV001

Buienradar



Weerbericht - Voorspelling